sensor_id;sensor_type;location;lat;lon;timestamp;temperature;humidity
57636;DHT22;43465;50.728;4.160;2023-07-09T00:00:55;26.50;94.00
57636;DHT22;43465;50.728;4.160;2023-07-09T00:03:22;26.40;94.10
57636;DHT22;43465;50.728;4.160;2023-07-09T00:05:49;26.40;94.30
57636;DHT22;43465;50.728;4.160;2023-07-09T00:08:29;26.40;94.40
57636;DHT22;43465;50.728;4.160;2023-07-09T00:10:56;26.30;94.50
57636;DHT22;43465;50.728;4.160;2023-07-09T00:13:24;26.30;94.70
57636;DHT22;43465;50.728;4.160;2023-07-09T00:15:50;26.30;94.70
57636;DHT22;43465;50.728;4.160;2023-07-09T00:18:16;26.20;94.80
57636;DHT22;43465;50.728;4.160;2023-07-09T00:20:42;26.20;95.00
57636;DHT22;43465;50.728;4.160;2023-07-09T00:23:13;26.00;95.30
57636;DHT22;43465;50.728;4.160;2023-07-09T00:25:43;26.00;95.50
57636;DHT22;43465;50.728;4.160;2023-07-09T00:28:23;25.90;95.80
57636;DHT22;43465;50.728;4.160;2023-07-09T00:30:49;25.90;95.90
57636;DHT22;43465;50.728;4.160;2023-07-09T00:33:16;25.80;96.00
57636;DHT22;43465;50.728;4.160;2023-07-09T00:35:46;25.80;96.10
57636;DHT22;43465;50.728;4.160;2023-07-09T00:38:20;25.80;96.20
57636;DHT22;43465;50.728;4.160;2023-07-09T00:41:05;25.80;96.20
57636;DHT22;43465;50.728;4.160;2023-07-09T00:43:34;25.80;96.30
57636;DHT22;43465;50.728;4.160;2023-07-09T00:49:09;25.70;96.50
57636;DHT22;43465;50.728;4.160;2023-07-09T00:51:40;25.80;96.50
57636;DHT22;43465;50.728;4.160;2023-07-09T00:54:27;25.80;96.50
57636;DHT22;43465;50.728;4.160;2023-07-09T00:57:05;25.70;96.50
57636;DHT22;43465;50.728;4.160;2023-07-09T00:59:32;25.70;96.70
57636;DHT22;43465;50.728;4.160;2023-07-09T01:01:58;25.70;96.90
57636;DHT22;43465;50.728;4.160;2023-07-09T01:04:25;25.60;97.10
57636;DHT22;43465;50.728;4.160;2023-07-09T01:06:54;25.60;97.10
57636;DHT22;43465;50.728;4.160;2023-07-09T01:09:22;25.70;97.00
57636;DHT22;43465;50.728;4.160;2023-07-09T01:11:48;25.60;97.00
57636;DHT22;43465;50.728;4.160;2023-07-09T01:14:15;25.50;97.50
57636;DHT22;43465;50.728;4.160;2023-07-09T01:16:57;25.50;97.60
57636;DHT22;43465;50.728;4.160;2023-07-09T01:19:26;25.40;97.70
57636;DHT22;43465;50.728;4.160;2023-07-09T01:21:58;25.30;97.80
57636;DHT22;43465;50.728;4.160;2023-07-09T01:24:51;25.40;97.80
57636;DHT22;43465;50.728;4.160;2023-07-09T01:27:19;25.40;97.60
57636;DHT22;43465;50.728;4.160;2023-07-09T01:29:46;25.50;97.20
57636;DHT22;43465;50.728;4.160;2023-07-09T01:32:15;25.60;96.90
57636;DHT22;43465;50.728;4.160;2023-07-09T01:34:41;25.70;96.30
57636;DHT22;43465;50.728;4.160;2023-07-09T01:37:06;25.60;96.20
57636;DHT22;43465;50.728;4.160;2023-07-09T01:39:32;25.60;96.30
57636;DHT22;43465;50.728;4.160;2023-07-09T01:41:58;25.50;96.10
57636;DHT22;43465;50.728;4.160;2023-07-09T01:44:23;25.50;95.90
57636;DHT22;43465;50.728;4.160;2023-07-09T01:46:49;25.60;95.80
57636;DHT22;43465;50.728;4.160;2023-07-09T01:49:15;25.60;95.80
57636;DHT22;43465;50.728;4.160;2023-07-09T01:51:42;25.50;95.60
57636;DHT22;43465;50.728;4.160;2023-07-09T01:54:08;25.50;95.60
57636;DHT22;43465;50.728;4.160;2023-07-09T01:56:33;25.50;95.80
57636;DHT22;43465;50.728;4.160;2023-07-09T01:58:59;25.50;95.80
57636;DHT22;43465;50.728;4.160;2023-07-09T02:01:28;25.50;95.90
57636;DHT22;43465;50.728;4.160;2023-07-09T02:03:53;25.40;96.10
57636;DHT22;43465;50.728;4.160;2023-07-09T02:06:19;25.40;96.30
57636;DHT22;43465;50.728;4.160;2023-07-09T02:08:45;25.40;96.30
57636;DHT22;43465;50.728;4.160;2023-07-09T02:11:11;25.50;96.30
57636;DHT22;43465;50.728;4.160;2023-07-09T02:13:37;25.50;96.30
57636;DHT22;43465;50.728;4.160;2023-07-09T02:16:02;25.60;96.30
57636;DHT22;43465;50.728;4.160;2023-07-09T02:18:29;25.50;96.40
57636;DHT22;43465;50.728;4.160;2023-07-09T02:20:54;25.50;96.40
57636;DHT22;43465;50.728;4.160;2023-07-09T02:23:25;25.50;96.40
57636;DHT22;43465;50.728;4.160;2023-07-09T02:25:51;25.50;96.50
57636;DHT22;43465;50.728;4.160;2023-07-09T02:28:16;25.40;96.50
57636;DHT22;43465;50.728;4.160;2023-07-09T02:30:42;25.30;96.60
57636;DHT22;43465;50.728;4.160;2023-07-09T02:33:07;25.30;96.70
57636;DHT22;43465;50.728;4.160;2023-07-09T02:35:33;25.10;97.00
57636;DHT22;43465;50.728;4.160;2023-07-09T02:38:01;25.10;97.00
57636;DHT22;43465;50.728;4.160;2023-07-09T02:40:27;25.10;97.00
57636;DHT22;43465;50.728;4.160;2023-07-09T02:42:52;25.10;97.10
57636;DHT22;43465;50.728;4.160;2023-07-09T02:45:18;25.10;96.90
57636;DHT22;43465;50.728;4.160;2023-07-09T02:47:44;25.20;96.90
57636;DHT22;43465;50.728;4.160;2023-07-09T02:50:09;25.30;97.00
57636;DHT22;43465;50.728;4.160;2023-07-09T02:52:35;25.20;97.00
57636;DHT22;43465;50.728;4.160;2023-07-09T02:55:01;25.10;97.00
57636;DHT22;43465;50.728;4.160;2023-07-09T02:57:26;25.10;97.00
57636;DHT22;43465;50.728;4.160;2023-07-09T02:59:52;25.00;97.30
57636;DHT22;43465;50.728;4.160;2023-07-09T03:02:17;24.90;97.30
57636;DHT22;43465;50.728;4.160;2023-07-09T03:04:43;24.90;97.60
57636;DHT22;43465;50.728;4.160;2023-07-09T03:07:09;24.80;97.70
57636;DHT22;43465;50.728;4.160;2023-07-09T03:09:34;24.70;97.80
57636;DHT22;43465;50.728;4.160;2023-07-09T03:12:00;24.60;98.30
57636;DHT22;43465;50.728;4.160;2023-07-09T03:14:26;24.60;98.40
57636;DHT22;43465;50.728;4.160;2023-07-09T03:16:51;24.60;98.50
57636;DHT22;43465;50.728;4.160;2023-07-09T03:19:17;24.50;98.50
57636;DHT22;43465;50.728;4.160;2023-07-09T03:21:43;24.50;98.80
57636;DHT22;43465;50.728;4.160;2023-07-09T03:24:09;24.40;99.10
57636;DHT22;43465;50.728;4.160;2023-07-09T03:26:34;24.40;99.20
57636;DHT22;43465;50.728;4.160;2023-07-09T03:29:00;24.40;99.20
57636;DHT22;43465;50.728;4.160;2023-07-09T03:31:26;24.30;99.30
57636;DHT22;43465;50.728;4.160;2023-07-09T03:33:52;24.30;99.40
57636;DHT22;43465;50.728;4.160;2023-07-09T03:36:18;24.30;99.70
57636;DHT22;43465;50.728;4.160;2023-07-09T03:38:45;24.20;99.80
57636;DHT22;43465;50.728;4.160;2023-07-09T03:41:11;24.20;99.90
57636;DHT22;43465;50.728;4.160;2023-07-09T03:43:36;24.10;99.90
57636;DHT22;43465;50.728;4.160;2023-07-09T03:46:02;24.10;99.90
57636;DHT22;43465;50.728;4.160;2023-07-09T03:48:28;24.00;99.90
57636;DHT22;43465;50.728;4.160;2023-07-09T03:50:54;24.00;99.90
57636;DHT22;43465;50.728;4.160;2023-07-09T03:53:19;24.00;99.90
57636;DHT22;43465;50.728;4.160;2023-07-09T03:55:52;23.90;99.90
57636;DHT22;43465;50.728;4.160;2023-07-09T03:58:17;23.90;99.90
57636;DHT22;43465;50.728;4.160;2023-07-09T04:00:43;23.90;99.90
57636;DHT22;43465;50.728;4.160;2023-07-09T04:03:10;23.80;99.90
57636;DHT22;43465;50.728;4.160;2023-07-09T04:05:36;23.80;99.90
57636;DHT22;43465;50.728;4.160;2023-07-09T04:08:02;23.80;99.90
57636;DHT22;43465;50.728;4.160;2023-07-09T04:10:28;23.80;99.90
57636;DHT22;43465;50.728;4.160;2023-07-09T04:12:54;23.80;99.90
57636;DHT22;43465;50.728;4.160;2023-07-09T04:15:20;23.80;99.90
57636;DHT22;43465;50.728;4.160;2023-07-09T04:17:45;23.90;99.90
57636;DHT22;43465;50.728;4.160;2023-07-09T04:20:11;23.90;99.90
57636;DHT22;43465;50.728;4.160;2023-07-09T04:22:38;23.90;99.90
57636;DHT22;43465;50.728;4.160;2023-07-09T04:25:06;23.90;99.90
57636;DHT22;43465;50.728;4.160;2023-07-09T04:27:32;24.00;99.90
57636;DHT22;43465;50.728;4.160;2023-07-09T04:29:58;24.00;99.90
57636;DHT22;43465;50.728;4.160;2023-07-09T04:32:23;24.00;99.90
57636;DHT22;43465;50.728;4.160;2023-07-09T04:34:49;24.00;99.90
57636;DHT22;43465;50.728;4.160;2023-07-09T04:37:15;24.10;99.90
57636;DHT22;43465;50.728;4.160;2023-07-09T04:39:44;24.10;99.90
57636;DHT22;43465;50.728;4.160;2023-07-09T04:42:14;24.10;99.90
57636;DHT22;43465;50.728;4.160;2023-07-09T04:44:41;24.10;99.90
57636;DHT22;43465;50.728;4.160;2023-07-09T04:47:07;24.10;99.90
57636;DHT22;43465;50.728;4.160;2023-07-09T04:49:33;24.10;99.90
57636;DHT22;43465;50.728;4.160;2023-07-09T04:51:59;24.10;99.90
57636;DHT22;43465;50.728;4.160;2023-07-09T04:54:25;24.00;99.90
57636;DHT22;43465;50.728;4.160;2023-07-09T04:56:51;24.00;99.90
57636;DHT22;43465;50.728;4.160;2023-07-09T04:59:18;24.00;99.90
57636;DHT22;43465;50.728;4.160;2023-07-09T05:01:43;24.00;99.90
57636;DHT22;43465;50.728;4.160;2023-07-09T05:04:09;24.00;99.90
57636;DHT22;43465;50.728;4.160;2023-07-09T05:06:35;24.00;99.90
57636;DHT22;43465;50.728;4.160;2023-07-09T05:09:01;24.00;99.90
57636;DHT22;43465;50.728;4.160;2023-07-09T05:11:27;24.00;99.90
57636;DHT22;43465;50.728;4.160;2023-07-09T05:13:52;24.00;99.90
57636;DHT22;43465;50.728;4.160;2023-07-09T05:16:18;24.10;99.90
57636;DHT22;43465;50.728;4.160;2023-07-09T05:18:45;24.10;99.90
57636;DHT22;43465;50.728;4.160;2023-07-09T05:21:11;24.20;99.90
57636;DHT22;43465;50.728;4.160;2023-07-09T05:23:37;24.20;99.90
57636;DHT22;43465;50.728;4.160;2023-07-09T05:26:03;24.30;99.90
57636;DHT22;43465;50.728;4.160;2023-07-09T05:28:30;24.40;99.90
57636;DHT22;43465;50.728;4.160;2023-07-09T05:30:56;24.40;99.90
57636;DHT22;43465;50.728;4.160;2023-07-09T05:33:21;24.50;99.90
57636;DHT22;43465;50.728;4.160;2023-07-09T05:35:47;24.50;99.90
57636;DHT22;43465;50.728;4.160;2023-07-09T05:38:14;24.50;99.90
57636;DHT22;43465;50.728;4.160;2023-07-09T05:40:41;24.60;99.90
57636;DHT22;43465;50.728;4.160;2023-07-09T05:43:08;24.60;99.90
57636;DHT22;43465;50.728;4.160;2023-07-09T05:45:33;24.60;99.90
57636;DHT22;43465;50.728;4.160;2023-07-09T05:47:59;24.70;99.90
57636;DHT22;43465;50.728;4.160;2023-07-09T05:50:25;24.70;99.90
57636;DHT22;43465;50.728;4.160;2023-07-09T05:52:51;24.70;99.90
57636;DHT22;43465;50.728;4.160;2023-07-09T05:55:17;24.80;99.90
57636;DHT22;43465;50.728;4.160;2023-07-09T05:57:43;24.80;99.90
57636;DHT22;43465;50.728;4.160;2023-07-09T06:00:09;24.90;99.90
57636;DHT22;43465;50.728;4.160;2023-07-09T06:02:35;24.90;99.90
57636;DHT22;43465;50.728;4.160;2023-07-09T06:05:01;24.90;99.90
57636;DHT22;43465;50.728;4.160;2023-07-09T06:07:27;25.00;99.90
57636;DHT22;43465;50.728;4.160;2023-07-09T06:09:53;24.90;99.90
57636;DHT22;43465;50.728;4.160;2023-07-09T06:12:18;25.00;99.90
57636;DHT22;43465;50.728;4.160;2023-07-09T06:14:45;25.00;99.90
57636;DHT22;43465;50.728;4.160;2023-07-09T06:17:12;25.10;99.90
57636;DHT22;43465;50.728;4.160;2023-07-09T06:19:38;25.10;99.90
57636;DHT22;43465;50.728;4.160;2023-07-09T06:22:04;25.20;99.90
57636;DHT22;43465;50.728;4.160;2023-07-09T06:24:30;25.30;99.90
57636;DHT22;43465;50.728;4.160;2023-07-09T06:26:55;25.20;99.90
57636;DHT22;43465;50.728;4.160;2023-07-09T06:29:21;25.30;99.90
57636;DHT22;43465;50.728;4.160;2023-07-09T06:31:46;25.20;99.90
57636;DHT22;43465;50.728;4.160;2023-07-09T06:34:12;25.30;99.90
57636;DHT22;43465;50.728;4.160;2023-07-09T06:36:38;25.30;99.90
57636;DHT22;43465;50.728;4.160;2023-07-09T06:39:04;25.40;99.90
57636;DHT22;43465;50.728;4.160;2023-07-09T06:41:31;25.40;99.90
57636;DHT22;43465;50.728;4.160;2023-07-09T06:43:58;25.40;99.90
57636;DHT22;43465;50.728;4.160;2023-07-09T06:46:23;25.40;99.90
57636;DHT22;43465;50.728;4.160;2023-07-09T06:48:49;25.30;98.80
57636;DHT22;43465;50.728;4.160;2023-07-09T06:51:15;25.20;98.80
57636;DHT22;43465;50.728;4.160;2023-07-09T06:53:41;25.20;99.40
57636;DHT22;43465;50.728;4.160;2023-07-09T06:56:08;25.20;99.80
57636;DHT22;43465;50.728;4.160;2023-07-09T06:58:36;25.20;99.00
57636;DHT22;43465;50.728;4.160;2023-07-09T07:01:03;25.30;98.80
57636;DHT22;43465;50.728;4.160;2023-07-09T07:03:31;25.30;98.70
57636;DHT22;43465;50.728;4.160;2023-07-09T07:05:57;25.20;98.90
57636;DHT22;43465;50.728;4.160;2023-07-09T07:08:24;25.20;99.30
57636;DHT22;43465;50.728;4.160;2023-07-09T07:10:55;25.30;99.10
57636;DHT22;43465;50.728;4.160;2023-07-09T07:13:31;25.30;99.90
57636;DHT22;43465;50.728;4.160;2023-07-09T07:15:57;25.30;99.80
57636;DHT22;43465;50.728;4.160;2023-07-09T07:18:23;25.30;99.70
57636;DHT22;43465;50.728;4.160;2023-07-09T07:20:49;25.50;99.00
57636;DHT22;43465;50.728;4.160;2023-07-09T07:23:16;25.60;99.10
57636;DHT22;43465;50.728;4.160;2023-07-09T07:25:42;25.50;99.30
57636;DHT22;43465;50.728;4.160;2023-07-09T07:28:07;25.50;99.30
57636;DHT22;43465;50.728;4.160;2023-07-09T07:30:33;25.60;98.80
57636;DHT22;43465;50.728;4.160;2023-07-09T07:32:59;25.50;98.20
57636;DHT22;43465;50.728;4.160;2023-07-09T07:35:25;25.50;98.80
57636;DHT22;43465;50.728;4.160;2023-07-09T07:37:50;25.50;98.70
57636;DHT22;43465;50.728;4.160;2023-07-09T07:40:16;25.50;98.30
57636;DHT22;43465;50.728;4.160;2023-07-09T07:42:41;25.50;98.80
57636;DHT22;43465;50.728;4.160;2023-07-09T07:45:08;25.40;99.40
57636;DHT22;43465;50.728;4.160;2023-07-09T07:47:34;25.40;99.20
57636;DHT22;43465;50.728;4.160;2023-07-09T07:49:59;25.50;99.30
57636;DHT22;43465;50.728;4.160;2023-07-09T07:52:27;25.60;99.30
57636;DHT22;43465;50.728;4.160;2023-07-09T07:54:52;25.50;98.80
57636;DHT22;43465;50.728;4.160;2023-07-09T07:57:18;25.60;98.90
57636;DHT22;43465;50.728;4.160;2023-07-09T07:59:44;25.50;99.70
57636;DHT22;43465;50.728;4.160;2023-07-09T08:02:13;25.50;99.40
57636;DHT22;43465;50.728;4.160;2023-07-09T08:04:39;25.60;99.40
57636;DHT22;43465;50.728;4.160;2023-07-09T08:07:07;25.60;98.70
57636;DHT22;43465;50.728;4.160;2023-07-09T08:09:33;25.80;98.30
57636;DHT22;43465;50.728;4.160;2023-07-09T08:11:59;25.80;98.90
57636;DHT22;43465;50.728;4.160;2023-07-09T08:14:24;25.90;98.60
57636;DHT22;43465;50.728;4.160;2023-07-09T08:16:50;26.00;98.40
57636;DHT22;43465;50.728;4.160;2023-07-09T08:19:18;26.10;98.90
57636;DHT22;43465;50.728;4.160;2023-07-09T08:21:45;26.20;99.00
57636;DHT22;43465;50.728;4.160;2023-07-09T08:24:10;26.30;98.20
57636;DHT22;43465;50.728;4.160;2023-07-09T08:26:36;26.50;97.90
57636;DHT22;43465;50.728;4.160;2023-07-09T08:29:03;26.40;98.20
57636;DHT22;43465;50.728;4.160;2023-07-09T08:31:29;26.50;98.40
57636;DHT22;43465;50.728;4.160;2023-07-09T08:33:55;26.70;98.50
57636;DHT22;43465;50.728;4.160;2023-07-09T08:36:20;26.80;98.80
57636;DHT22;43465;50.728;4.160;2023-07-09T08:38:46;27.00;98.00
57636;DHT22;43465;50.728;4.160;2023-07-09T08:41:43;27.20;97.40
57636;DHT22;43465;50.728;4.160;2023-07-09T08:44:32;27.20;98.00
57636;DHT22;43465;50.728;4.160;2023-07-09T08:47:26;27.30;96.80
57636;DHT22;43465;50.728;4.160;2023-07-09T08:49:57;27.40;96.00
57636;DHT22;43465;50.728;4.160;2023-07-09T08:52:40;27.40;96.70
57636;DHT22;43465;50.728;4.160;2023-07-09T08:55:12;27.50;96.50
57636;DHT22;43465;50.728;4.160;2023-07-09T08:57:46;27.60;96.60
57636;DHT22;43465;50.728;4.160;2023-07-09T09:00:40;27.70;97.00
57636;DHT22;43465;50.728;4.160;2023-07-09T09:03:11;27.80;96.20
57636;DHT22;43465;50.728;4.160;2023-07-09T09:05:43;27.90;96.00
57636;DHT22;43465;50.728;4.160;2023-07-09T09:08:20;27.90;96.00
57636;DHT22;43465;50.728;4.160;2023-07-09T09:10:58;28.10;95.70
57636;DHT22;43465;50.728;4.160;2023-07-09T09:13:28;28.30;97.00
57636;DHT22;43465;50.728;4.160;2023-07-09T09:15:58;28.50;95.90
57636;DHT22;43465;50.728;4.160;2023-07-09T09:18:29;28.50;95.70
57636;DHT22;43465;50.728;4.160;2023-07-09T09:21:11;28.50;96.40
57636;DHT22;43465;50.728;4.160;2023-07-09T09:23:45;28.70;96.50
57636;DHT22;43465;50.728;4.160;2023-07-09T09:26:29;28.80;95.10
57636;DHT22;43465;50.728;4.160;2023-07-09T09:28:56;28.90;95.00
57636;DHT22;43465;50.728;4.160;2023-07-09T09:31:25;28.90;94.20
57636;DHT22;43465;50.728;4.160;2023-07-09T09:33:52;28.80;94.80
57636;DHT22;43465;50.728;4.160;2023-07-09T09:36:23;28.70;95.80
57636;DHT22;43465;50.728;4.160;2023-07-09T09:38:49;28.80;96.10
57636;DHT22;43465;50.728;4.160;2023-07-09T09:41:24;28.70;94.40
57636;DHT22;43465;50.728;4.160;2023-07-09T09:43:54;28.80;94.60
57636;DHT22;43465;50.728;4.160;2023-07-09T09:46:25;28.80;94.60
57636;DHT22;43465;50.728;4.160;2023-07-09T09:48:56;28.90;94.50
57636;DHT22;43465;50.728;4.160;2023-07-09T09:51:24;28.80;96.10
57636;DHT22;43465;50.728;4.160;2023-07-09T09:53:52;28.80;94.60
57636;DHT22;43465;50.728;4.160;2023-07-09T09:56:28;28.90;95.20
57636;DHT22;43465;50.728;4.160;2023-07-09T09:58:56;29.10;95.10
57636;DHT22;43465;50.728;4.160;2023-07-09T10:01:27;29.20;94.40
57636;DHT22;43465;50.728;4.160;2023-07-09T10:03:56;29.20;94.10
57636;DHT22;43465;50.728;4.160;2023-07-09T10:06:37;29.10;93.50
57636;DHT22;43465;50.728;4.160;2023-07-09T10:15:01;28.80;95.20
57636;DHT22;43465;50.728;4.160;2023-07-09T10:26:46;28.20;95.70
57636;DHT22;43465;50.728;4.160;2023-07-09T10:32:15;28.40;95.10
57636;DHT22;43465;50.728;4.160;2023-07-09T10:35:05;28.20;95.60
57636;DHT22;43465;50.728;4.160;2023-07-09T10:40:31;28.10;96.50
57636;DHT22;43465;50.728;4.160;2023-07-09T10:43:00;28.10;95.70
57636;DHT22;43465;50.728;4.160;2023-07-09T10:45:42;28.20;95.80
57636;DHT22;43465;50.728;4.160;2023-07-09T10:48:12;28.20;96.00
57636;DHT22;43465;50.728;4.160;2023-07-09T10:50:42;28.30;94.70
57636;DHT22;43465;50.728;4.160;2023-07-09T10:53:22;28.40;95.20
57636;DHT22;43465;50.728;4.160;2023-07-09T10:56:20;28.30;94.20
57636;DHT22;43465;50.728;4.160;2023-07-09T10:58:52;28.20;94.00
57636;DHT22;43465;50.728;4.160;2023-07-09T11:01:19;28.10;95.00
57636;DHT22;43465;50.728;4.160;2023-07-09T11:03:52;28.00;94.80
57636;DHT22;43465;50.728;4.160;2023-07-09T11:06:31;27.80;95.20
57636;DHT22;43465;50.728;4.160;2023-07-09T11:08:59;27.80;95.80
57636;DHT22;43465;50.728;4.160;2023-07-09T11:11:37;27.60;95.20
57636;DHT22;43465;50.728;4.160;2023-07-09T11:14:36;27.40;95.20
57636;DHT22;43465;50.728;4.160;2023-07-09T11:17:04;27.40;95.90
57636;DHT22;43465;50.728;4.160;2023-07-09T11:19:31;27.30;96.20
57636;DHT22;43465;50.728;4.160;2023-07-09T11:24:49;27.10;97.30
57636;DHT22;43465;50.728;4.160;2023-07-09T11:27:26;27.10;97.00
57636;DHT22;43465;50.728;4.160;2023-07-09T11:30:00;27.10;97.30
57636;DHT22;43465;50.728;4.160;2023-07-09T11:32:28;27.10;97.10
57636;DHT22;43465;50.728;4.160;2023-07-09T11:34:54;27.10;97.00
57636;DHT22;43465;50.728;4.160;2023-07-09T11:37:25;27.10;96.90
57636;DHT22;43465;50.728;4.160;2023-07-09T11:39:51;27.10;96.90
57636;DHT22;43465;50.728;4.160;2023-07-09T11:44:57;26.70;98.60
57636;DHT22;43465;50.728;4.160;2023-07-09T11:47:38;26.60;99.10
57636;DHT22;43465;50.728;4.160;2023-07-09T11:50:27;26.70;99.10
57636;DHT22;43465;50.728;4.160;2023-07-09T11:53:03;26.70;99.40
57636;DHT22;43465;50.728;4.160;2023-07-09T11:55:41;26.80;99.40
57636;DHT22;43465;50.728;4.160;2023-07-09T11:58:10;26.80;99.80
57636;DHT22;43465;50.728;4.160;2023-07-09T12:00:42;26.80;99.80
57636;DHT22;43465;50.728;4.160;2023-07-09T12:03:19;26.80;99.90
57636;DHT22;43465;50.728;4.160;2023-07-09T12:05:54;26.70;99.90
57636;DHT22;43465;50.728;4.160;2023-07-09T12:08:38;26.60;99.90
57636;DHT22;43465;50.728;4.160;2023-07-09T12:11:05;26.40;99.90
57636;DHT22;43465;50.728;4.160;2023-07-09T12:13:38;26.20;99.90
57636;DHT22;43465;50.728;4.160;2023-07-09T12:16:17;26.10;99.90
57636;DHT22;43465;50.728;4.160;2023-07-09T12:18:44;26.00;99.90
57636;DHT22;43465;50.728;4.160;2023-07-09T12:21:10;25.80;99.90
57636;DHT22;43465;50.728;4.160;2023-07-09T12:23:35;25.50;99.90
57636;DHT22;43465;50.728;4.160;2023-07-09T12:26:03;25.30;99.90
57636;DHT22;43465;50.728;4.160;2023-07-09T12:28:30;25.30;99.90
57636;DHT22;43465;50.728;4.160;2023-07-09T12:30:56;25.40;99.90
57636;DHT22;43465;50.728;4.160;2023-07-09T12:33:24;25.50;99.90
57636;DHT22;43465;50.728;4.160;2023-07-09T12:35:56;25.50;99.90
57636;DHT22;43465;50.728;4.160;2023-07-09T12:38:25;25.30;99.90
57636;DHT22;43465;50.728;4.160;2023-07-09T12:40:52;25.40;99.90
57636;DHT22;43465;50.728;4.160;2023-07-09T12:43:25;25.20;99.90
57636;DHT22;43465;50.728;4.160;2023-07-09T12:45:52;25.30;99.90
57636;DHT22;43465;50.728;4.160;2023-07-09T12:48:21;25.10;99.90
57636;DHT22;43465;50.728;4.160;2023-07-09T12:50:50;25.10;99.90
57636;DHT22;43465;50.728;4.160;2023-07-09T12:53:20;25.10;99.90
57636;DHT22;43465;50.728;4.160;2023-07-09T12:55:47;25.00;99.90
57636;DHT22;43465;50.728;4.160;2023-07-09T12:58:26;24.90;99.90
57636;DHT22;43465;50.728;4.160;2023-07-09T13:00:54;24.80;99.90
57636;DHT22;43465;50.728;4.160;2023-07-09T13:03:24;24.80;99.90
57636;DHT22;43465;50.728;4.160;2023-07-09T13:05:58;24.80;99.90
57636;DHT22;43465;50.728;4.160;2023-07-09T13:08:26;24.70;99.90
57636;DHT22;43465;50.728;4.160;2023-07-09T13:10:53;24.70;99.90
57636;DHT22;43465;50.728;4.160;2023-07-09T13:13:21;24.80;99.90
57636;DHT22;43465;50.728;4.160;2023-07-09T13:15:57;24.90;99.90
57636;DHT22;43465;50.728;4.160;2023-07-09T13:18:26;25.00;99.90
57636;DHT22;43465;50.728;4.160;2023-07-09T13:20:56;25.10;99.90
57636;DHT22;43465;50.728;4.160;2023-07-09T13:23:29;25.20;99.90
57636;DHT22;43465;50.728;4.160;2023-07-09T13:25:57;25.30;99.90
57636;DHT22;43465;50.728;4.160;2023-07-09T13:28:31;25.30;99.90
57636;DHT22;43465;50.728;4.160;2023-07-09T13:33:33;25.30;99.90
57636;DHT22;43465;50.728;4.160;2023-07-09T13:35:58;25.30;99.90
57636;DHT22;43465;50.728;4.160;2023-07-09T13:38:24;25.40;99.90
57636;DHT22;43465;50.728;4.160;2023-07-09T13:40:54;25.50;99.90
57636;DHT22;43465;50.728;4.160;2023-07-09T13:43:30;25.50;99.90
57636;DHT22;43465;50.728;4.160;2023-07-09T13:45:56;25.60;99.90
57636;DHT22;43465;50.728;4.160;2023-07-09T13:48:24;25.60;99.90
57636;DHT22;43465;50.728;4.160;2023-07-09T13:50:52;25.70;99.90
57636;DHT22;43465;50.728;4.160;2023-07-09T13:53:23;25.90;99.90
57636;DHT22;43465;50.728;4.160;2023-07-09T13:55:49;26.10;99.90
57636;DHT22;43465;50.728;4.160;2023-07-09T13:58:18;26.30;99.90
57636;DHT22;43465;50.728;4.160;2023-07-09T14:00:46;26.40;99.90
57636;DHT22;43465;50.728;4.160;2023-07-09T14:03:20;26.70;99.90
57636;DHT22;43465;50.728;4.160;2023-07-09T14:05:46;26.80;99.90
57636;DHT22;43465;50.728;4.160;2023-07-09T14:08:12;26.70;99.90
57636;DHT22;43465;50.728;4.160;2023-07-09T14:10:38;26.70;99.90
57636;DHT22;43465;50.728;4.160;2023-07-09T14:13:05;26.80;99.90
57636;DHT22;43465;50.728;4.160;2023-07-09T14:15:31;27.00;99.90
57636;DHT22;43465;50.728;4.160;2023-07-09T14:17:56;27.20;99.90
57636;DHT22;43465;50.728;4.160;2023-07-09T14:20:22;27.30;99.90
57636;DHT22;43465;50.728;4.160;2023-07-09T14:22:49;27.40;99.90
57636;DHT22;43465;50.728;4.160;2023-07-09T14:25:21;27.60;99.90
57636;DHT22;43465;50.728;4.160;2023-07-09T14:27:49;27.90;99.90
57636;DHT22;43465;50.728;4.160;2023-07-09T14:30:18;28.30;99.90
57636;DHT22;43465;50.728;4.160;2023-07-09T14:32:46;29.00;99.90
57636;DHT22;43465;50.728;4.160;2023-07-09T14:35:16;29.40;99.90
57636;DHT22;43465;50.728;4.160;2023-07-09T14:37:44;29.60;99.90
57636;DHT22;43465;50.728;4.160;2023-07-09T14:40:11;30.10;99.90
57636;DHT22;43465;50.728;4.160;2023-07-09T14:42:38;30.50;99.90
57636;DHT22;43465;50.728;4.160;2023-07-09T14:45:06;30.70;99.90
57636;DHT22;43465;50.728;4.160;2023-07-09T14:47:40;30.70;99.90
57636;DHT22;43465;50.728;4.160;2023-07-09T14:50:07;30.60;99.90
57636;DHT22;43465;50.728;4.160;2023-07-09T14:52:33;30.60;99.90
57636;DHT22;43465;50.728;4.160;2023-07-09T14:54:59;30.80;99.90
57636;DHT22;43465;50.728;4.160;2023-07-09T14:57:26;31.60;99.90
57636;DHT22;43465;50.728;4.160;2023-07-09T14:59:53;32.40;99.90
57636;DHT22;43465;50.728;4.160;2023-07-09T15:04:47;33.20;99.00
57636;DHT22;43465;50.728;4.160;2023-07-09T15:07:13;33.20;98.20
57636;DHT22;43465;50.728;4.160;2023-07-09T15:09:39;33.10;97.50
57636;DHT22;43465;50.728;4.160;2023-07-09T15:12:17;33.00;97.70
57636;DHT22;43465;50.728;4.160;2023-07-09T15:14:44;33.00;96.60
57636;DHT22;43465;50.728;4.160;2023-07-09T15:17:13;33.00;96.90
57636;DHT22;43465;50.728;4.160;2023-07-09T15:19:39;33.20;96.50
57636;DHT22;43465;50.728;4.160;2023-07-09T15:22:05;33.40;96.80
57636;DHT22;43465;50.728;4.160;2023-07-09T15:24:33;33.40;98.00
57636;DHT22;43465;50.728;4.160;2023-07-09T15:27:00;32.90;97.70
57636;DHT22;43465;50.728;4.160;2023-07-09T15:29:27;32.60;97.40
57636;DHT22;43465;50.728;4.160;2023-07-09T15:31:54;32.00;97.70
57636;DHT22;43465;50.728;4.160;2023-07-09T15:34:20;32.10;99.70
57636;DHT22;43465;50.728;4.160;2023-07-09T15:36:50;32.30;97.60
57636;DHT22;43465;50.728;4.160;2023-07-09T15:39:17;31.80;97.50
57636;DHT22;43465;50.728;4.160;2023-07-09T15:41:43;31.30;98.10
57636;DHT22;43465;50.728;4.160;2023-07-09T15:44:13;30.70;98.80
57636;DHT22;43465;50.728;4.160;2023-07-09T15:46:59;30.30;99.40
57636;DHT22;43465;50.728;4.160;2023-07-09T15:49:25;29.90;99.90
57636;DHT22;43465;50.728;4.160;2023-07-09T15:51:50;29.50;99.90
57636;DHT22;43465;50.728;4.160;2023-07-09T15:54:22;29.10;99.90
57636;DHT22;43465;50.728;4.160;2023-07-09T15:56:50;28.70;99.90
57636;DHT22;43465;50.728;4.160;2023-07-09T16:01:44;28.00;99.90
57636;DHT22;43465;50.728;4.160;2023-07-09T16:04:10;28.00;99.90
57636;DHT22;43465;50.728;4.160;2023-07-09T16:06:36;27.90;99.90
57636;DHT22;43465;50.728;4.160;2023-07-09T16:09:03;27.70;99.90
57636;DHT22;43465;50.728;4.160;2023-07-09T16:11:29;27.60;99.90
57636;DHT22;43465;50.728;4.160;2023-07-09T16:13:55;27.40;99.90
57636;DHT22;43465;50.728;4.160;2023-07-09T16:16:23;27.20;99.90